CYUY

Rouyn-Noranda Airport

Rouyn-Noranda, , Canada
METAR CYUY 222100Z 25007KT 15SM FEW210 FEW260 12/M10 A3033 RMK CI1CI1 CI TR CI TR SLP288
Observed Flight Rules
Apr-22 @ 21:00 UTC (46 minutes ago) Visual Flight Rules
Wind Visibility Clouds
250° at 7 knots 15 miles
  • Few at 21,000' AGL
  • Few at 26,000' AGL
Temperatures Readings
Current 12°C / 54°F
Dewpoint -10°C / 14°F
Humidity 21%
Altimeter 30.33" Hg
Pressure 1028.8 hPa
Elevation 301
METAR CYUY 222100Z 25007KT 15SM FEW210 FEW260 12/M10 A3033 RMK CI1CI1 CI TR CI TR SLP288
Observed Flight Rules
Apr-22 @ 21:00 UTC
(46 minutes ago)
VFR
Wind Visibility
250° at 7 knots 15 miles
Clouds
  • Few at 21,000' AGL
  • Few at 26,000' AGL
Temperature Dewpoint
12°C / 54°F -10°C / 14°F
Humidity Altimeter Pressure
21% 30.33" Hg 1028.8 hPa